Time;durP1;ratioP1;P1;durP2;ratioP2;P2;SDS_P1;SDS_P2;PMS_P1;PMS_P2;Temp;Humidity;BMP_temperature;BMP_pressure;BME280_temperature;BME280_humidity;BME280_pressure;Samples;Min_cycle;Max_cycle;Signal;HPM_P1;HPM_P2
2022/11/02 00:01:44;;;;;;;6.35;2.40;;;13.30;72.60;;;;;;5097032;28;20963;-71
2022/11/02 00:04:13;;;;;;;6.68;2.20;;;13.30;72.60;;;;;;5088937;28;20426;-72
2022/11/02 00:06:40;;;;;;;6.28;2.20;;;13.30;73.30;;;;;;5078248;28;20423;-72
2022/11/02 00:09:07;;;;;;;5.22;2.00;;;13.30;72.60;;;;;;5075249;28;20437;-72
2022/11/02 00:11:36;;;;;;;6.05;2.15;;;13.30;72.50;;;;;;5070307;28;20428;-73
2022/11/02 00:14:03;;;;;;;7.35;2.20;;;13.30;72.50;;;;;;5083162;28;20421;-72
2022/11/02 00:16:30;;;;;;;5.85;1.88;;;13.30;72.90;;;;;;5078577;28;21087;-72
2022/11/02 00:19:00;;;;;;;9.45;2.65;;;13.30;72.70;;;;;;5071861;28;20933;-72
2022/11/02 00:21:28;;;;;;;7.63;2.28;;;13.30;73.00;;;;;;5072473;28;20505;-71
2022/11/02 00:23:57;;;;;;;8.15;2.70;;;13.30;72.90;;;;;;5072382;28;20424;-72
2022/11/02 00:26:24;;;;;;;5.55;1.90;;;13.30;72.80;;;;;;5078028;28;20452;-72
2022/11/02 00:28:51;;;;;;;7.35;2.47;;;13.30;73.40;;;;;;5081160;28;20414;-70
2022/11/02 00:31:18;;;;;;;5.90;2.40;;;13.30;73.20;;;;;;5076366;28;20441;-72
2022/11/02 00:33:44;;;;;;;6.25;1.80;;;13.20;73.30;;;;;;5086477;28;20937;-72
2022/11/02 00:36:11;;;;;;;6.82;2.10;;;13.20;73.50;;;;;;5082708;28;20430;-72
2022/11/02 00:38:40;;;;;;;6.60;2.28;;;13.20;73.50;;;;;;5069878;28;20438;-70
2022/11/02 00:41:06;;;;;;;6.27;2.60;;;13.20;73.70;;;;;;5081151;28;20426;-71
2022/11/02 00:43:33;;;;;;;5.43;2.20;;;13.10;73.60;;;;;;5074962;28;20427;-71
2022/11/02 00:46:00;;;;;;;7.30;2.17;;;13.20;73.90;;;;;;5079283;28;20483;-71
2022/11/02 00:48:27;;;;;;;8.75;2.88;;;13.10;74.50;;;;;;5080752;28;21208;-71
2022/11/02 00:50:54;;;;;;;6.90;2.25;;;13.10;74.10;;;;;;5076413;28;20925;-73
2022/11/02 00:53:20;;;;;;;10.05;2.60;;;13.10;74.50;;;;;;5085240;28;20424;-73
2022/11/02 00:55:49;;;;;;;6.75;2.60;;;13.00;74.30;;;;;;5074354;28;20465;-71
2022/11/02 00:58:15;;;;;;;8.07;2.55;;;13.00;74.50;;;;;;5088646;28;20419;-72
2022/11/02 01:00:42;;;;;;;7.18;2.25;;;13.00;74.70;;;;;;5081417;28;20421;-74
2022/11/02 01:03:09;;;;;;;6.03;2.17;;;13.00;74.80;;;;;;5076418;28;20418;-71
2022/11/02 01:05:37;;;;;;;7.20;2.65;;;13.10;74.80;;;;;;5083591;28;20418;-73
2022/11/02 01:08:04;;;;;;;7.00;2.05;;;13.10;74.60;;;;;;5081913;28;20461;-72
2022/11/02 01:10:31;;;;;;;7.38;2.10;;;13.00;74.90;;;;;;5082921;28;20440;-71
2022/11/02 01:13:00;;;;;;;7.05;2.20;;;13.00;75.00;;;;;;5076134;28;20446;-73
2022/11/02 01:15:27;;;;;;;8.82;2.10;;;13.00;74.90;;;;;;5081724;28;20426;-71
2022/11/02 01:17:54;;;;;;;5.47;2.00;;;13.00;75.20;;;;;;5086401;28;20438;-73
2022/11/02 01:20:21;;;;;;;7.10;2.33;;;13.00;75.10;;;;;;5079266;28;20494;-71
2022/11/02 01:22:47;;;;;;;4.93;2.10;;;12.90;75.30;;;;;;5074791;28;21100;-72
2022/11/02 01:25:14;;;;;;;9.27;2.50;;;13.00;75.20;;;;;;5070338;28;20523;-72
2022/11/02 01:27:41;;;;;;;6.90;2.20;;;13.00;75.40;;;;;;5078780;28;20416;-72
2022/11/02 01:30:10;;;;;;;6.18;2.70;;;12.90;75.40;;;;;;5073467;28;20429;-73
2022/11/02 01:32:37;;;;;;;5.20;2.10;;;12.90;75.40;;;;;;5077980;28;20416;-73
2022/11/02 01:35:04;;;;;;;6.57;2.50;;;12.90;75.60;;;;;;5077003;28;20421;-70
2022/11/02 01:37:31;;;;;;;5.18;1.90;;;12.90;75.90;;;;;;5078572;28;20457;-73
2022/11/02 01:39:58;;;;;;;8.07;2.60;;;12.90;75.90;;;;;;5043770;22;20498;-77
2022/11/02 01:42:26;;;;;;;4.28;1.52;;;12.80;75.90;;;;;;5005130;28;20520;-77
2022/11/02 01:44:53;;;;;;;7.65;2.63;;;12.80;76.40;;;;;;5005352;28;20440;-77
2022/11/02 01:47:26;;;;;;;4.90;1.80;;;12.80;76.60;;;;;;4997508;28;20438;-76
2022/11/02 01:49:57;;;;;;;4.70;1.83;;;12.80;76.70;;;;;;4997936;28;20441;-77
2022/11/02 01:52:28;;;;;;;4.82;1.70;;;12.70;76.60;;;;;;5001738;28;20428;-77
2022/11/02 01:54:59;;;;;;;7.70;2.40;;;12.70;77.10;;;;;;4998172;28;20460;-78
2022/11/02 01:57:28;;;;;;;11.68;2.97;;;12.60;77.50;;;;;;4995365;28;20426;-77
2022/11/02 01:59:58;;;;;;;4.70;2.10;;;12.60;77.40;;;;;;4998178;28;20538;-77
2022/11/02 02:02:28;;;;;;;7.82;2.78;;;12.60;78.10;;;;;;5009733;28;20466;-78
2022/11/02 02:05:01;;;;;;;5.70;2.50;;;12.60;77.80;;;;;;5003719;28;20960;-77
2022/11/02 02:07:30;;;;;;;4.05;1.70;;;12.60;77.60;;;;;;4999746;28;20446;-77
2022/11/02 02:09:57;;;;;;;7.47;2.50;;;12.60;78.80;;;;;;4999008;28;20429;-77
2022/11/02 02:12:25;;;;;;;7.10;2.42;;;12.60;78.10;;;;;;5000828;28;20513;-78
2022/11/02 02:14:53;;;;;;;9.50;2.38;;;12.60;78.20;;;;;;5006417;28;20950;-77
2022/11/02 02:17:30;;;;;;;7.53;2.30;;;12.60;78.60;;;;;;5003362;28;20447;-76
2022/11/02 02:20:02;;;;;;;6.72;2.30;;;12.50;78.70;;;;;;5009650;28;20452;-78
2022/11/02 02:23:01;;;;;;;4.93;2.25;;;12.50;78.60;;;;;;5011422;28;20434;-77
2022/11/02 02:25:50;;;;;;;4.95;2.20;;;12.50;80.00;;;;;;4995818;28;20443;-77
2022/11/02 02:28:26;;;;;;;7.30;2.30;;;12.50;79.30;;;;;;5005099;28;20428;-77
2022/11/02 02:30:58;;;;;;;6.75;2.25;;;12.50;79.60;;;;;;5003273;28;20459;-77
2022/11/02 02:33:30;;;;;;;5.65;2.65;;;12.40;79.80;;;;;;4998418;28;20429;-76
2022/11/02 02:36:01;;;;;;;6.18;2.20;;;12.50;79.80;;;;;;4997126;28;20459;-77
2022/11/02 02:38:33;;;;;;;6.80;2.50;;;12.50;79.80;;;;;;5005747;28;20495;-77
2022/11/02 02:41:10;;;;;;;7.30;2.28;;;12.50;79.80;;;;;;5001135;28;20444;-76
2022/11/02 02:43:43;;;;;;;5.28;2.30;;;12.50;79.70;;;;;;5002463;28;20759;-77
2022/11/02 02:46:15;;;;;;;8.27;3.00;;;12.50;79.90;;;;;;5002134;28;20494;-76
2022/11/02 02:48:45;;;;;;;6.07;2.70;;;12.50;80.10;;;;;;4999257;28;20484;-77
2022/11/02 02:51:17;;;;;;;7.60;2.60;;;12.50;80.30;;;;;;4990446;28;20839;-77
2022/11/02 02:53:47;;;;;;;10.80;2.40;;;12.40;80.50;;;;;;5001620;28;20667;-77
2022/11/02 02:56:17;;;;;;;5.20;2.25;;;12.40;80.40;;;;;;4999956;28;20436;-77
2022/11/02 02:58:51;;;;;;;5.60;2.40;;;12.40;80.60;;;;;;4999055;28;20523;-77
2022/11/02 03:01:19;;;;;;;6.07;2.20;;;12.40;80.50;;;;;;4994800;28;20507;-77
2022/11/02 03:03:47;;;;;;;6.32;2.25;;;12.40;80.60;;;;;;5002829;28;20444;-78
2022/11/02 03:06:19;;;;;;;5.75;2.47;;;12.40;80.90;;;;;;5006461;28;20440;-77
2022/11/02 03:08:56;;;;;;;9.38;2.92;;;12.40;80.80;;;;;;5003069;28;20447;-77
2022/11/02 03:11:23;;;;;;;5.97;2.37;;;12.40;80.70;;;;;;5002001;28;20416;-77
2022/11/02 03:14:12;;;;;;;5.40;2.35;;;12.40;80.80;;;;;;5004550;28;20428;-77
2022/11/02 03:17:04;;;;;;;7.40;2.63;;;12.40;80.90;;;;;;5002002;28;20961;-78
2022/11/02 03:19:40;;;;;;;5.90;2.40;;;12.40;80.90;;;;;;5001823;28;21132;-77
2022/11/02 03:22:12;;;;;;;6.30;2.83;;;12.50;80.80;;;;;;5005425;28;20557;-77
2022/11/02 03:24:47;;;;;;;6.00;3.08;;;12.60;80.50;;;;;;5005671;28;20453;-76
2022/11/02 03:27:20;;;;;;;6.00;2.60;;;12.60;80.20;;;;;;5001188;28;20543;-78
2022/11/02 03:29:53;;;;;;;6.90;2.50;;;12.60;79.90;;;;;;4998580;28;20436;-77
2022/11/02 03:32:25;;;;;;;8.63;2.40;;;12.60;79.90;;;;;;4995362;28;20431;-77
2022/11/02 03:34:55;;;;;;;5.55;2.35;;;12.70;79.70;;;;;;5001052;28;20429;-79
2022/11/02 03:37:27;;;;;;;6.00;2.20;;;12.70;79.50;;;;;;5001149;28;20532;-77
2022/11/02 03:39:58;;;;;;;6.00;2.80;;;12.70;79.30;;;;;;4999367;28;20590;-77
2022/11/02 03:42:27;;;;;;;5.40;2.42;;;12.70;79.50;;;;;;5006214;28;20432;-77
2022/11/02 03:44:58;;;;;;;7.65;2.60;;;12.70;79.50;;;;;;5000973;28;20430;-77
2022/11/02 03:47:29;;;;;;;5.75;2.80;;;12.70;79.30;;;;;;5000564;28;20445;-77
2022/11/02 03:49:57;;;;;;;6.18;2.50;;;12.70;79.30;;;;;;5001855;28;20416;-77
2022/11/02 03:52:29;;;;;;;6.38;2.40;;;12.70;79.20;;;;;;5010136;28;20428;-78
2022/11/02 03:55:04;;;;;;;6.15;2.38;;;12.70;79.50;;;;;;5005615;28;20451;-78
2022/11/02 03:57:35;;;;;;;6.40;2.20;;;12.60;79.40;;;;;;5010299;28;20423;-77
2022/11/02 04:00:12;;;;;;;6.55;2.50;;;12.60;79.80;;;;;;5003508;28;20447;-77
2022/11/02 04:02:42;;;;;;;7.18;2.38;;;12.60;79.80;;;;;;5002928;28;20451;-77
2022/11/02 04:05:09;;;;;;;8.30;2.80;;;12.60;79.40;;;;;;5002527;28;20443;-77
2022/11/02 04:10:31;;;;;;;6.40;2.30;;;12.60;79.20;;;;;;5011794;28;20441;-77
2022/11/02 04:15:43;;;;;;;6.18;2.38;;;12.60;78.90;;;;;;5002621;28;20436;-78
2022/11/02 04:20:54;;;;;;;4.45;2.70;;;12.50;78.70;;;;;;5006408;28;20431;-78
2022/11/02 04:26:06;;;;;;;6.45;2.20;;;12.50;78.80;;;;;;5002855;28;20437;-77
2022/11/02 04:28:32;;;;;;;4.75;2.20;;;12.50;78.50;;;;;;5006605;28;20437;-77
2022/11/02 04:31:00;;;;;;;5.10;1.90;;;12.50;78.30;;;;;;4996598;28;20953;-78
2022/11/02 04:33:32;;;;;;;6.43;2.53;;;12.50;78.40;;;;;;4999552;28;20496;-78
2022/11/02 04:36:00;;;;;;;6.00;2.60;;;12.40;78.60;;;;;;5003216;28;20441;-77
2022/11/02 04:38:41;;;;;;;5.70;2.20;;;12.40;78.20;;;;;;5008232;28;20907;-77
2022/11/02 04:43:53;;;;;;;5.80;2.30;;;12.40;78.00;;;;;;5007726;28;20423;-76
2022/11/02 04:46:22;;;;;;;6.65;2.40;;;12.30;77.20;;;;;;5009298;28;20448;-77
2022/11/02 04:48:50;;;;;;;5.57;2.30;;;12.30;76.00;;;;;;5013283;28;20431;-78
2022/11/02 04:51:17;;;;;;;4.20;2.00;;;12.40;75.20;;;;;;5001125;28;20425;-77
2022/11/02 04:53:44;;;;;;;4.72;2.25;;;12.50;74.60;;;;;;5002344;28;20445;-79
2022/11/02 04:56:11;;;;;;;4.57;1.80;;;12.50;73.60;;;;;;5003148;28;20436;-77
2022/11/02 04:58:38;;;;;;;4.78;1.70;;;12.50;72.90;;;;;;4995499;28;20429;-77
2022/11/02 05:01:06;;;;;;;4.70;1.63;;;12.60;72.40;;;;;;5008119;28;20431;-77
2022/11/02 05:03:34;;;;;;;5.32;1.90;;;12.70;71.90;;;;;;5019935;28;20851;-77
2022/11/02 05:06:01;;;;;;;5.15;1.90;;;12.70;71.70;;;;;;5013026;28;20511;-77
2022/11/02 05:08:28;;;;;;;6.63;1.77;;;12.70;71.80;;;;;;5010426;28;20436;-77
2022/11/02 05:10:55;;;;;;;7.33;2.50;;;12.70;71.60;;;;;;5003539;28;20525;-77
2022/11/02 05:13:22;;;;;;;3.67;1.55;;;12.70;71.50;;;;;;5002341;28;20507;-77
2022/11/02 05:15:49;;;;;;;5.20;1.80;;;12.70;71.60;;;;;;5006602;28;20449;-77
2022/11/02 05:18:16;;;;;;;6.40;2.00;;;12.80;71.60;;;;;;5005094;28;20440;-77
2022/11/02 05:20:50;;;;;;;6.50;1.88;;;12.70;71.40;;;;;;5006505;28;20454;-77
2022/11/02 05:23:17;;;;;;;4.35;1.80;;;12.80;71.50;;;;;;5011092;28;20449;-78
2022/11/02 05:25:51;;;;;;;4.82;1.70;;;12.80;71.60;;;;;;5003613;28;20444;-77
2022/11/02 05:28:18;;;;;;;6.57;2.00;;;12.80;71.40;;;;;;5007492;28;20420;-77
2022/11/02 05:30:45;;;;;;;4.03;1.85;;;12.80;71.40;;;;;;5003326;28;20425;-78
2022/11/02 05:33:11;;;;;;;5.88;2.10;;;12.80;71.50;;;;;;5005245;28;20863;-79
2022/11/02 05:35:38;;;;;;;3.90;1.60;;;12.80;71.60;;;;;;5004590;28;20435;-79
2022/11/02 05:38:06;;;;;;;3.58;1.80;;;12.80;71.70;;;;;;5007644;28;20439;-78
2022/11/02 05:40:36;;;;;;;5.20;1.80;;;12.70;71.80;;;;;;4996245;28;20448;-76
2022/11/02 05:43:03;;;;;;;4.75;2.00;;;12.70;72.00;;;;;;4999602;28;20464;-76
2022/11/02 05:45:30;;;;;;;5.60;2.13;;;12.60;72.20;;;;;;4997819;28;22286;-76
2022/11/02 05:48:00;;;;;;;5.03;2.10;;;12.60;72.10;;;;;;5001895;28;20444;-77
2022/11/02 05:50:27;;;;;;;5.32;1.80;;;12.60;72.20;;;;;;5001261;28;20432;-77
2022/11/02 05:52:54;;;;;;;5.30;2.10;;;12.60;72.40;;;;;;4994337;28;20444;-77
2022/11/02 05:55:23;;;;;;;8.33;2.70;;;12.60;72.10;;;;;;4995658;28;20440;-78
2022/11/02 05:57:51;;;;;;;6.50;2.10;;;12.60;72.20;;;;;;5005832;28;20427;-78
2022/11/02 06:00:19;;;;;;;4.95;2.00;;;12.60;72.60;;;;;;5002006;28;20440;-78
2022/11/02 06:02:46;;;;;;;5.88;1.77;;;12.50;72.80;;;;;;5003735;28;20512;-78
2022/11/02 06:05:12;;;;;;;8.40;2.50;;;12.60;72.40;;;;;;5003182;28;20972;-78
2022/11/02 06:07:39;;;;;;;6.35;2.10;;;12.60;72.50;;;;;;5003523;28;20463;-76
2022/11/02 06:10:07;;;;;;;7.88;2.40;;;12.60;72.50;;;;;;4992866;28;20440;-76
2022/11/02 06:12:35;;;;;;;6.23;2.30;;;12.50;72.70;;;;;;5003064;28;20456;-76
2022/11/02 06:15:02;;;;;;;6.43;2.55;;;12.60;72.80;;;;;;5006355;28;20432;-75
2022/11/02 06:17:29;;;;;;;6.18;1.90;;;12.50;72.80;;;;;;5002557;28;20437;-75
2022/11/02 06:19:56;;;;;;;4.32;1.90;;;12.50;72.70;;;;;;5002449;28;20436;-75
2022/11/02 06:22:22;;;;;;;5.32;1.90;;;12.60;72.50;;;;;;5002623;28;20435;-76
2022/11/02 06:24:49;;;;;;;6.32;2.30;;;12.60;72.90;;;;;;5004102;28;20433;-75
2022/11/02 06:27:16;;;;;;;6.25;2.47;;;12.60;72.50;;;;;;5004564;28;20444;-75
2022/11/02 06:29:44;;;;;;;6.63;2.10;;;12.60;72.10;;;;;;4993089;28;20428;-76
2022/11/02 06:32:11;;;;;;;5.82;2.30;;;12.70;72.20;;;;;;5003805;28;20419;-73
2022/11/02 06:34:38;;;;;;;6.45;2.03;;;12.70;72.10;;;;;;4998579;28;20446;-73
2022/11/02 06:37:04;;;;;;;5.45;2.17;;;12.70;71.90;;;;;;5004774;28;20456;-75
2022/11/02 06:39:32;;;;;;;5.20;2.33;;;12.60;72.20;;;;;;5005241;28;20810;-73
2022/11/02 06:41:59;;;;;;;6.35;2.25;;;12.60;72.10;;;;;;5006562;28;20894;-74
2022/11/02 06:44:25;;;;;;;5.78;1.90;;;12.60;72.40;;;;;;5005977;28;20443;-74
2022/11/02 06:46:54;;;;;;;5.00;1.80;;;12.60;72.20;;;;;;5001393;28;20440;-73
2022/11/02 06:49:21;;;;;;;7.35;2.20;;;12.50;72.40;;;;;;5003862;28;20428;-74
2022/11/02 06:51:50;;;;;;;9.52;3.40;;;12.50;72.30;;;;;;5002702;28;20441;-75
2022/11/02 06:54:17;;;;;;;5.30;2.30;;;12.60;72.20;;;;;;5005509;28;20408;-75
2022/11/02 06:56:44;;;;;;;5.50;2.40;;;12.60;72.20;;;;;;5007615;28;20440;-74
2022/11/02 06:59:11;;;;;;;6.55;2.25;;;12.60;72.20;;;;;;5007758;28;20436;-74
2022/11/02 07:01:38;;;;;;;6.35;2.10;;;12.60;72.50;;;;;;5000429;28;20457;-74
2022/11/02 07:04:06;;;;;;;5.18;2.60;;;12.50;72.40;;;;;;5016271;28;20433;-74
2022/11/02 07:06:33;;;;;;;5.90;2.03;;;12.50;72.60;;;;;;5014886;28;20441;-73
2022/11/02 07:09:00;;;;;;;6.15;2.20;;;12.60;72.50;;;;;;4990731;28;20460;-73
2022/11/02 07:11:26;;;;;;;5.13;1.90;;;12.50;72.30;;;;;;5005968;28;20467;-74
2022/11/02 07:13:53;;;;;;;5.63;1.80;;;12.60;72.30;;;;;;5004658;28;20447;-74
2022/11/02 07:16:20;;;;;;;6.18;1.90;;;12.60;72.00;;;;;;5004609;28;20504;-74
2022/11/02 07:18:47;;;;;;;6.93;2.20;;;12.60;72.20;;;;;;5002254;28;20907;-74
2022/11/02 07:21:15;;;;;;;6.75;2.10;;;12.60;72.20;;;;;;5004775;28;20432;-74
2022/11/02 07:23:41;;;;;;;7.28;2.00;;;12.60;72.20;;;;;;5004064;28;20462;-74
2022/11/02 07:26:08;;;;;;;7.65;2.20;;;12.60;72.10;;;;;;5001284;28;20422;-74
2022/11/02 07:28:37;;;;;;;6.78;2.53;;;12.60;72.30;;;;;;5002423;28;20875;-74
2022/11/02 07:31:04;;;;;;;5.43;1.98;;;12.60;72.70;;;;;;5002211;28;20443;-74
2022/11/02 07:33:31;;;;;;;7.25;2.00;;;12.60;72.80;;;;;;5001897;28;20535;-74
2022/11/02 07:35:57;;;;;;;10.13;2.40;;;12.60;72.90;;;;;;5011717;28;20469;-74
2022/11/02 07:38:25;;;;;;;7.40;2.80;;;12.60;73.80;;;;;;5014046;28;20436;-75
2022/11/02 07:40:52;;;;;;;5.38;1.83;;;12.60;72.80;;;;;;5008531;28;20420;-74
2022/11/02 07:43:19;;;;;;;6.40;1.98;;;12.60;73.20;;;;;;5004406;28;20454;-74
2022/11/02 07:45:46;;;;;;;6.25;2.30;;;12.60;72.80;;;;;;5001797;28;20810;-74
2022/11/02 07:48:12;;;;;;;7.70;2.15;;;12.60;73.00;;;;;;4988985;28;20826;-73
2022/11/02 07:50:39;;;;;;;8.10;2.50;;;12.70;73.30;;;;;;5005737;28;20819;-74
2022/11/02 07:53:06;;;;;;;7.00;2.60;;;12.70;73.90;;;;;;5007593;28;20523;-73
2022/11/02 07:55:34;;;;;;;5.32;1.55;;;12.70;72.80;;;;;;5007525;28;20482;-74
2022/11/02 07:58:03;;;;;;;7.90;2.00;;;12.70;73.10;;;;;;5007268;28;20444;-73
2022/11/02 08:00:33;;;;;;;6.35;2.03;;;12.90;72.70;;;;;;5009467;28;20420;-73
2022/11/02 08:03:01;;;;;;;5.45;2.20;;;13.00;72.20;;;;;;5007099;28;20518;-74
2022/11/02 08:05:29;;;;;;;5.75;2.00;;;13.30;71.30;;;;;;5006882;28;20921;-74
2022/11/02 08:07:57;;;;;;;6.28;2.42;;;13.50;70.20;;;;;;4994145;28;20425;-74
2022/11/02 08:10:25;;;;;;;4.85;2.00;;;13.60;69.30;;;;;;5005744;28;20521;-74
2022/11/02 08:12:54;;;;;;;6.55;1.85;;;13.80;69.20;;;;;;5006914;28;20413;-74
2022/11/02 08:15:20;;;;;;;7.90;3.00;;;13.90;68.20;;;;;;5005753;28;21532;-74
2022/11/02 08:17:47;;;;;;;6.68;2.10;;;14.10;67.40;;;;;;5007295;28;20416;-75
2022/11/02 08:20:14;;;;;;;6.27;2.10;;;14.20;67.60;;;;;;5039986;23;20438;-71
2022/11/02 08:22:41;;;;;;;8.07;2.47;;;14.40;67.30;;;;;;5022318;28;20432;-72
2022/11/02 08:25:08;;;;;;;6.32;2.30;;;14.60;65.70;;;;;;5026679;28;20435;-72
2022/11/02 08:27:35;;;;;;;6.65;2.70;;;14.70;65.30;;;;;;5029657;28;20448;-72
2022/11/02 08:30:04;;;;;;;7.07;2.30;;;14.90;64.70;;;;;;5029746;28;20418;-72
2022/11/02 08:32:30;;;;;;;6.07;2.10;;;15.00;64.80;;;;;;5015857;28;20802;-72
2022/11/02 08:34:57;;;;;;;6.70;2.50;;;15.10;64.30;;;;;;5012871;28;20429;-71
2022/11/02 08:37:24;;;;;;;6.15;2.17;;;15.20;63.00;;;;;;5014267;28;20435;-72
2022/11/02 08:39:50;;;;;;;7.03;2.47;;;15.20;63.20;;;;;;5013404;28;20440;-72
2022/11/02 08:42:17;;;;;;;8.35;2.45;;;15.30;62.60;;;;;;5017011;28;20422;-71
2022/11/02 08:44:44;;;;;;;6.10;2.10;;;15.20;63.20;;;;;;5024419;28;20799;-71
2022/11/02 08:47:12;;;;;;;6.07;2.20;;;15.30;62.90;;;;;;5012987;28;20443;-73
2022/11/02 08:49:39;;;;;;;8.18;2.30;;;15.20;62.50;;;;;;5022953;28;21232;-73
2022/11/02 08:52:05;;;;;;;5.95;2.10;;;15.20;62.40;;;;;;5012907;28;20430;-72
2022/11/02 08:54:32;;;;;;;6.90;2.70;;;15.20;62.60;;;;;;5011767;28;20437;-71
2022/11/02 08:56:59;;;;;;;6.95;2.47;;;15.20;62.10;;;;;;5017095;28;21020;-71
2022/11/02 08:59:26;;;;;;;5.32;2.28;;;15.10;62.50;;;;;;5014843;28;20440;-71
2022/11/02 09:01:52;;;;;;;5.95;2.13;;;15.20;62.40;;;;;;5013640;28;20430;-72
2022/11/02 09:04:21;;;;;;;7.75;2.50;;;15.30;62.50;;;;;;5008034;28;20439;-72
2022/11/02 09:06:47;;;;;;;7.30;2.20;;;15.50;61.70;;;;;;5016715;28;20438;-71
2022/11/02 09:09:14;;;;;;;6.57;2.33;;;15.70;61.40;;;;;;5018829;28;20435;-71
2022/11/02 09:11:41;;;;;;;6.67;2.23;;;15.80;59.80;;;;;;5020945;28;20454;-71
2022/11/02 09:14:07;;;;;;;6.93;2.57;;;15.60;60.10;;;;;;5024838;28;20421;-70
2022/11/02 09:16:34;;;;;;;5.87;2.20;;;15.50;61.00;;;;;;5034106;28;20493;-71
2022/11/02 09:19:01;;;;;;;7.07;2.30;;;15.50;60.80;;;;;;5014829;28;20496;-70
2022/11/02 09:21:29;;;;;;;5.30;2.20;;;15.70;60.60;;;;;;5006034;28;20483;-73
2022/11/02 09:23:56;;;;;;;6.97;2.40;;;15.90;59.00;;;;;;5020658;28;20431;-72
2022/11/02 09:26:23;;;;;;;8.23;2.35;;;16.10;58.40;;;;;;5005621;28;20445;-72
2022/11/02 09:28:49;;;;;;;5.80;2.00;;;16.10;57.90;;;;;;5006669;28;20513;-71
2022/11/02 09:31:16;;;;;;;5.72;2.50;;;16.00;58.00;;;;;;5011190;28;20443;-71
2022/11/02 09:33:43;;;;;;;7.38;2.53;;;15.90;57.80;;;;;;5023041;28;20911;-71
2022/11/02 09:36:10;;;;;;;6.80;2.20;;;15.80;58.00;;;;;;5014814;28;20433;-71
2022/11/02 09:38:38;;;;;;;7.40;2.38;;;15.70;58.80;;;;;;5009149;28;20926;-71
2022/11/02 09:41:12;;;;;;;5.93;2.20;;;15.80;58.20;;;;;;5008034;28;20437;-71
2022/11/02 09:43:50;;;;;;;4.78;2.05;;;15.90;57.60;;;;;;5016541;28;20427;-70
2022/11/02 09:46:19;;;;;;;8.10;2.15;;;16.00;57.40;;;;;;5011634;28;20442;-70
2022/11/02 09:48:50;;;;;;;6.67;2.23;;;15.90;56.20;;;;;;5022364;28;20458;-70
2022/11/02 09:51:21;;;;;;;6.57;1.92;;;15.80;56.00;;;;;;5015935;28;20426;-70
2022/11/02 09:53:55;;;;;;;7.93;2.00;;;15.80;57.10;;;;;;5026995;28;20434;-71
2022/11/02 09:56:22;;;;;;;6.13;2.15;;;15.90;56.50;;;;;;5009686;28;20436;-72
2022/11/02 09:58:56;;;;;;;5.68;1.90;;;16.00;55.80;;;;;;5008276;28;20436;-71
2022/11/02 10:01:33;;;;;;;5.93;2.10;;;16.00;56.00;;;;;;5003256;28;20428;-71
2022/11/02 10:04:23;;;;;;;6.13;2.17;;;16.20;54.00;;;;;;5014364;28;20439;-70
2022/11/02 10:06:57;;;;;;;5.43;2.03;;;16.40;54.50;;;;;;5013931;28;20963;-72
2022/11/02 10:09:34;;;;;;;5.55;1.90;;;16.50;53.80;;;;;;5008051;28;20441;-71
2022/11/02 10:12:08;;;;;;;5.28;2.08;;;16.40;52.40;;;;;;5007793;28;20413;-70
2022/11/02 10:14:38;;;;;;;5.28;1.90;;;16.30;53.90;;;;;;5007598;28;20891;-72
2022/11/02 10:17:14;;;;;;;4.78;1.80;;;16.30;53.10;;;;;;5013916;28;20427;-72
2022/11/02 10:19:45;;;;;;;5.20;1.92;;;16.40;53.10;;;;;;5008860;28;20926;-71
2022/11/02 10:22:15;;;;;;;5.43;2.00;;;16.60;52.60;;;;;;5010457;28;20497;-70
2022/11/02 10:24:45;;;;;;;6.45;1.77;;;16.70;52.40;;;;;;5008074;28;21034;-71
2022/11/02 10:27:18;;;;;;;6.93;2.00;;;16.70;52.80;;;;;;5007022;28;20523;-72
2022/11/02 10:29:52;;;;;;;6.65;2.20;;;16.70;51.90;;;;;;5008244;28;20456;-71
2022/11/02 10:32:19;;;;;;;6.93;2.13;;;16.90;51.90;;;;;;5015786;28;20422;-71
2022/11/02 10:34:46;;;;;;;4.97;1.80;;;17.10;51.60;;;;;;5012739;28;20436;-71
2022/11/02 10:37:32;;;;;;;6.85;1.98;;;17.30;50.40;;;;;;5004926;28;20421;-71
2022/11/02 10:40:12;;;;;;;7.33;1.80;;;17.20;50.30;;;;;;5007392;28;20444;-71
2022/11/02 10:42:58;;;;;;;4.20;1.50;;;17.20;49.70;;;;;;5008755;28;20471;-71
2022/11/02 10:45:53;;;;;;;5.80;1.80;;;17.10;49.50;;;;;;5007710;28;20432;-71
2022/11/02 10:48:29;;;;;;;7.03;1.83;;;16.80;49.70;;;;;;5003721;28;20486;-70
2022/11/02 10:51:06;;;;;;;7.20;1.90;;;16.60;50.50;;;;;;5007339;28;20429;-70
2022/11/02 10:53:36;;;;;;;5.95;2.00;;;16.70;51.20;;;;;;5006677;28;20814;-70
2022/11/02 10:56:12;;;;;;;5.13;2.20;;;16.80;51.10;;;;;;5007778;28;20463;-70
2022/11/02 10:58:45;;;;;;;4.00;1.50;;;17.10;48.80;;;;;;5006278;28;20543;-70
2022/11/02 11:01:12;;;;;;;3.53;1.80;;;17.10;49.20;;;;;;5008484;28;20425;-71
2022/11/02 11:03:54;;;;;;;5.00;2.13;;;17.20;48.70;;;;;;5007650;28;20428;-71
2022/11/02 11:06:22;;;;;;;4.88;1.70;;;17.50;48.40;;;;;;5006841;28;20436;-71
2022/11/02 11:08:50;;;;;;;6.20;1.90;;;17.50;47.70;;;;;;5007891;28;20497;-71
2022/11/02 11:11:25;;;;;;;4.80;1.70;;;17.60;47.80;;;;;;5009105;28;20441;-71
2022/11/02 11:13:57;;;;;;;4.97;1.50;;;17.70;46.70;;;;;;5017395;28;20415;-74
2022/11/02 11:16:36;;;;;;;4.95;1.70;;;17.90;46.30;;;;;;5007990;28;20934;-71
2022/11/02 11:19:05;;;;;;;4.72;1.75;;;17.80;47.40;;;;;;5019340;28;20423;-71
2022/11/02 11:21:39;;;;;;;5.68;1.80;;;17.70;47.10;;;;;;5020852;28;20416;-74
2022/11/02 11:24:21;;;;;;;5.35;2.17;;;17.40;47.60;;;;;;5021531;28;21133;-72
2022/11/02 11:27:14;;;;;;;5.72;1.98;;;17.60;48.20;;;;;;5010010;28;20512;-72
2022/11/02 11:29:45;;;;;;;4.80;1.70;;;18.00;46.70;;;;;;5027350;28;20419;-72
2022/11/02 11:32:16;;;;;;;4.70;1.83;;;18.00;46.50;;;;;;5011740;28;20437;-71
2022/11/02 11:34:45;;;;;;;5.68;2.25;;;17.90;46.00;;;;;;5021170;28;20476;-71
2022/11/02 11:37:15;;;;;;;6.35;1.88;;;17.90;47.10;;;;;;5015407;28;20428;-71
2022/11/02 11:39:44;;;;;;;5.72;2.10;;;18.00;47.20;;;;;;5026810;28;20431;-72
2022/11/02 11:42:19;;;;;;;5.90;2.00;;;17.90;47.40;;;;;;5007177;28;20433;-71
2022/11/02 11:44:51;;;;;;;5.95;1.92;;;17.90;47.50;;;;;;5008328;28;20958;-71
2022/11/02 11:47:27;;;;;;;5.35;2.00;;;17.70;47.70;;;;;;5022930;28;20420;-71
2022/11/02 11:49:57;;;;;;;6.00;2.20;;;17.60;48.50;;;;;;4998312;28;20422;-71
2022/11/02 11:52:27;;;;;;;6.65;2.15;;;17.60;48.80;;;;;;5012237;28;20435;-72
2022/11/02 11:54:56;;;;;;;7.03;2.08;;;18.10;47.50;;;;;;5009424;28;20432;-70
2022/11/02 11:57:28;;;;;;;3.92;1.70;;;18.30;46.80;;;;;;5026254;28;20412;-71
2022/11/02 11:59:57;;;;;;;5.38;1.83;;;18.60;46.30;;;;;;5010494;28;20420;-70
2022/11/02 12:02:26;;;;;;;5.13;2.10;;;18.70;46.00;;;;;;5018151;28;20428;-72
2022/11/02 12:05:04;;;;;;;4.05;1.45;;;18.90;45.20;;;;;;5013774;28;20512;-72
2022/11/02 12:07:49;;;;;;;5.63;1.80;;;18.70;45.00;;;;;;5015770;28;20417;-70
2022/11/02 12:10:20;;;;;;;4.35;1.90;;;18.70;45.50;;;;;;5011502;28;20886;-71
2022/11/02 12:13:04;;;;;;;5.95;1.90;;;18.80;45.10;;;;;;5006470;28;20417;-71
2022/11/02 12:15:46;;;;;;;4.35;1.55;;;18.90;45.00;;;;;;5005453;28;20429;-74
2022/11/02 12:18:38;;;;;;;5.53;1.60;;;18.70;44.50;;;;;;5003643;28;20469;-71
2022/11/02 12:21:21;;;;;;;5.47;1.75;;;18.40;45.10;;;;;;5016843;28;20415;-72
2022/11/02 12:24:12;;;;;;;6.88;1.75;;;18.30;45.60;;;;;;5001214;28;20491;-71
2022/11/02 12:26:50;;;;;;;9.07;2.50;;;18.00;46.50;;;;;;5009686;28;20945;-72
2022/11/02 12:29:41;;;;;;;4.43;1.33;;;17.80;46.90;;;;;;5006419;28;20417;-72
2022/11/02 12:32:22;;;;;;;4.10;1.80;;;17.80;46.60;;;;;;5011916;28;20440;-72
2022/11/02 12:35:08;;;;;;;5.18;1.40;;;18.40;44.70;;;;;;5012892;28;20918;-71
2022/11/02 12:37:49;;;;;;;5.25;1.80;;;19.20;43.30;;;;;;5011686;28;20431;-71
2022/11/02 12:40:26;;;;;;;3.75;1.20;;;19.80;41.30;;;;;;5018001;28;20464;-72
2022/11/02 12:43:02;;;;;;;3.90;1.30;;;20.30;40.50;;;;;;5019696;28;20429;-72
2022/11/02 12:45:42;;;;;;;3.90;1.40;;;20.40;40.80;;;;;;5019307;28;20942;-72
2022/11/02 12:48:15;;;;;;;4.15;1.50;;;20.60;40.10;;;;;;5033084;28;20407;-71
2022/11/02 12:50:54;;;;;;;4.93;1.77;;;20.60;39.50;;;;;;5022788;28;20460;-71
2022/11/02 12:53:36;;;;;;;4.75;2.00;;;20.70;38.80;;;;;;5026138;28;20429;-72
2022/11/02 12:56:06;;;;;;;5.20;1.90;;;20.40;38.80;;;;;;5024279;28;20414;-72
2022/11/02 12:58:36;;;;;;;4.40;1.80;;;20.30;38.60;;;;;;5042377;28;20415;-71
2022/11/02 13:01:11;;;;;;;3.75;1.67;;;19.70;39.30;;;;;;5021671;28;20443;-72
2022/11/02 13:03:47;;;;;;;5.07;1.83;;;20.10;40.00;;;;;;5018701;28;20444;-71
2022/11/02 13:06:19;;;;;;;4.05;1.40;;;20.30;38.80;;;;;;5017159;28;20499;-73
2022/11/02 13:08:52;;;;;;;4.20;1.30;;;20.60;37.80;;;;;;5025291;28;20436;-73
2022/11/02 13:11:23;;;;;;;4.72;1.73;;;20.60;37.90;;;;;;5009964;28;20437;-73
2022/11/02 13:13:54;;;;;;;6.13;1.77;;;20.40;38.30;;;;;;5022847;28;20437;-72
2022/11/02 13:16:38;;;;;;;5.03;1.40;;;20.20;38.90;;;;;;5031473;28;20957;-72